Berkeley, New Jersey
Current Conditions -  °F | °C
As of 7:55 PM on Monday 26 Jan 2015 (Local Time) from KMJX Reporting Station
Overcast Overcast  
Wind Chill: 15°   Ceiling: 1000
Heat Index: 28°   Visibility: 4mi
Dew Point: 25°   Wind: 21mph
Humidity: 86%   Direction: 30°NNE
Pressure: 29.72"   Gusts: 30mph
Location:  39.9559°N, 74.2574°W
Report Text: KMJX 270055Z AUTO 03018G26KT 4SM BKN010 OVC018 M02/M04 A2972 RMK AO1
Loading
Personal Weather Stations






























Interactive Weather Map New forecast layout! Learn more

10-Day Weather Forecast

Advertisements
Track Severe Weather on mobile